Time;durP1;ratioP1;P1;durP2;ratioP2;P2;SDS_P1;SDS_P2;PMS_P1;PMS_P2;Temp;Humidity;BMP_temperature;BMP_pressure;BME280_temperature;BME280_humidity;BME280_pressure;Samples;Min_cycle;Max_cycle;Signal;HPM_P1;HPM_P2
2021/10/04 00:02:07;;;;;;;4.60;3.20;;;;;;;;;;4974708;28;20456;-75
2021/10/04 00:04:34;;;;;;;4.13;2.80;;;;;;;;;;4974769;28;20816;-76
2021/10/04 00:07:02;;;;;;;3.00;2.70;;;;;;;;;;4974374;28;20931;-76
2021/10/04 00:09:29;;;;;;;4.93;3.70;;;;;;;;;;4975168;28;20474;-76
2021/10/04 00:11:56;;;;;;;3.23;2.80;;;;;;;;;;4975152;28;20451;-75
2021/10/04 00:14:25;;;;;;;7.93;3.07;;;;;;;;;;4974661;28;20468;-75
2021/10/04 00:16:52;;;;;;;4.67;2.80;;;;;;;;;;4974566;28;20786;-75
2021/10/04 00:19:19;;;;;;;3.33;3.03;;;;;;;;;;4974738;28;20481;-75
2021/10/04 00:21:47;;;;;;;3.50;3.00;;;;;;;;;;4974676;28;20476;-76
2021/10/04 00:24:14;;;;;;;7.07;3.80;;;;;;;;;;4977614;28;20800;-76
2021/10/04 00:26:42;;;;;;;4.90;3.60;;;;;;;;;;4978501;28;20444;-76
2021/10/04 00:29:09;;;;;;;6.13;2.80;;;;;;;;;;4978130;28;20543;-76
2021/10/04 00:31:38;;;;;;;5.03;2.80;;;;;;;;;;4978390;28;20440;-77
2021/10/04 00:34:05;;;;;;;5.60;2.70;;;;;;;;;;4979041;28;20456;-78
2021/10/04 00:36:32;;;;;;;3.90;2.50;;;;;;;;;;4978297;28;20441;-78
2021/10/04 00:38:59;;;;;;;4.00;2.43;;;;;;;;;;4977891;28;20487;-77
2021/10/04 00:41:26;;;;;;;2.57;2.37;;;;;;;;;;4978201;28;20441;-77
2021/10/04 00:43:55;;;;;;;2.20;2.10;;;;;;;;;;4978098;28;20447;-77
2021/10/04 00:46:22;;;;;;;7.13;2.77;;;;;;;;;;4978189;28;20484;-76
2021/10/04 00:48:51;;;;;;;7.40;2.50;;;;;;;;;;4977790;28;20454;-77
2021/10/04 00:51:20;;;;;;;3.40;2.10;;;;;;;;;;4978614;28;20449;-78
2021/10/04 00:53:47;;;;;;;3.10;2.20;;;;;;;;;;4977634;28;20445;-77
2021/10/04 00:56:14;;;;;;;3.80;2.30;;;;;;;;;;4977979;28;20451;-77
2021/10/04 00:58:42;;;;;;;2.50;2.30;;;;;;;;;;4977850;28;20481;-77
2021/10/04 01:01:09;;;;;;;4.10;2.20;;;;;;;;;;4978397;28;20440;-77
2021/10/04 01:03:36;;;;;;;3.27;2.07;;;;;;;;;;4977468;28;20521;-76
2021/10/04 01:06:05;;;;;;;4.27;2.30;;;;;;;;;;4977730;28;20566;-76
2021/10/04 01:08:33;;;;;;;3.20;2.40;;;;;;;;;;4977672;28;20447;-76
2021/10/04 01:11:00;;;;;;;4.63;2.20;;;;;;;;;;4977584;28;20444;-76
2021/10/04 01:13:27;;;;;;;4.63;2.23;;;;;;;;;;4977620;28;20456;-76
2021/10/04 01:15:55;;;;;;;2.00;1.90;;;;;;;;;;4977273;28;20441;-76
2021/10/04 01:18:23;;;;;;;2.37;2.00;;;;;;;;;;4977145;28;20496;-76
2021/10/04 01:20:51;;;;;;;2.47;2.10;;;;;;;;;;4977390;28;20472;-76
2021/10/04 01:23:19;;;;;;;2.80;1.90;;;;;;;;;;4977435;28;20441;-76
2021/10/04 01:25:46;;;;;;;5.20;2.20;;;;;;;;;;4977391;28;20441;-76
2021/10/04 01:28:13;;;;;;;5.47;2.03;;;;;;;;;;4977531;28;20454;-76
2021/10/04 01:30:40;;;;;;;2.20;2.00;;;;;;;;;;4977392;28;20965;-77
2021/10/04 01:33:08;;;;;;;2.37;1.90;;;;;;;;;;4976957;28;20927;-77
2021/10/04 01:35:35;;;;;;;3.17;2.97;;;;;;;;;;4977195;28;20444;-77
2021/10/04 01:38:03;;;;;;;2.57;2.37;;;;;;;;;;4977059;28;20833;-77
2021/10/04 01:40:31;;;;;;;2.90;2.17;;;;;;;;;;4977063;28;20447;-77
2021/10/04 01:42:58;;;;;;;3.33;1.80;;;;;;;;;;4977068;28;20536;-78
2021/10/04 01:45:26;;;;;;;6.50;1.90;;;;;;;;;;4977673;28;20445;-78
2021/10/04 01:47:58;;;;;;;2.50;1.97;;;;;;;;;;4976693;28;20445;-77
2021/10/04 01:50:26;;;;;;;4.07;2.00;;;;;;;;;;4977544;28;20449;-77
2021/10/04 01:52:53;;;;;;;2.50;2.00;;;;;;;;;;4976889;28;20455;-77
2021/10/04 01:55:21;;;;;;;2.30;1.70;;;;;;;;;;4976859;28;20441;-76
2021/10/04 01:57:49;;;;;;;2.23;2.10;;;;;;;;;;4977255;28;20437;-76
2021/10/04 02:00:17;;;;;;;3.00;2.80;;;;;;;;;;4976703;28;20535;-76
2021/10/04 02:02:46;;;;;;;2.80;2.00;;;;;;;;;;4977461;28;20452;-76
2021/10/04 02:05:14;;;;;;;2.00;1.90;;;;;;;;;;4976648;28;20445;-76
2021/10/04 02:07:41;;;;;;;1.87;1.77;;;;;;;;;;4976409;28;20456;-77
2021/10/04 02:10:10;;;;;;;4.30;2.17;;;;;;;;;;4976598;28;20447;-77
2021/10/04 02:12:39;;;;;;;1.70;1.60;;;;;;;;;;4976534;28;20445;-77
2021/10/04 02:15:07;;;;;;;2.50;2.20;;;;;;;;;;4976441;28;20831;-77
2021/10/04 02:17:35;;;;;;;3.97;3.57;;;;;;;;;;4976101;28;20455;-77
2021/10/04 02:20:02;;;;;;;3.00;1.70;;;;;;;;;;4975889;28;20496;-77
2021/10/04 02:22:29;;;;;;;2.00;1.83;;;;;;;;;;4976701;28;20919;-77
2021/10/04 02:24:56;;;;;;;2.33;2.10;;;;;;;;;;4976337;28;20445;-77
2021/10/04 02:27:23;;;;;;;4.03;2.30;;;;;;;;;;4976752;28;20447;-78
2021/10/04 02:29:52;;;;;;;1.87;1.77;;;;;;;;;;4976205;28;20448;-77
2021/10/04 02:32:19;;;;;;;2.10;1.90;;;;;;;;;;4976126;28;20947;-77
2021/10/04 02:34:46;;;;;;;5.73;2.00;;;;;;;;;;4976030;28;20815;-78
2021/10/04 02:37:13;;;;;;;4.63;2.33;;;;;;;;;;4976086;28;20441;-77
2021/10/04 02:39:41;;;;;;;3.63;2.20;;;;;;;;;;4976369;28;20491;-76
2021/10/04 02:42:08;;;;;;;3.47;2.33;;;;;;;;;;4976635;28;20500;-76
2021/10/04 02:44:35;;;;;;;5.73;2.00;;;;;;;;;;4976091;28;20941;-76
2021/10/04 02:47:04;;;;;;;2.67;2.23;;;;;;;;;;4975448;28;20919;-77
2021/10/04 02:49:31;;;;;;;4.80;2.40;;;;;;;;;;4975477;28;20448;-78
2021/10/04 02:51:58;;;;;;;5.17;2.67;;;;;;;;;;4975715;28;20452;-77
2021/10/04 02:54:26;;;;;;;3.20;2.17;;;;;;;;;;4975741;28;20806;-76
2021/10/04 02:56:53;;;;;;;2.80;2.10;;;;;;;;;;4975652;28;20461;-77
2021/10/04 02:59:20;;;;;;;3.23;2.90;;;;;;;;;;4975289;28;20475;-76
2021/10/04 03:01:47;;;;;;;2.00;1.80;;;;;;;;;;4975290;28;20445;-76
2021/10/04 03:04:17;;;;;;;2.33;2.00;;;;;;;;;;4976048;28;20476;-76
2021/10/04 03:06:44;;;;;;;2.40;2.10;;;;;;;;;;4975551;28;20808;-76
2021/10/04 03:09:11;;;;;;;3.87;2.23;;;;;;;;;;4975478;28;20456;-76
2021/10/04 03:11:39;;;;;;;4.80;2.20;;;;;;;;;;4975407;28;20445;-76
2021/10/04 03:14:06;;;;;;;6.53;2.40;;;;;;;;;;4975023;28;20444;-75
2021/10/04 03:16:33;;;;;;;8.33;2.73;;;;;;;;;;4975037;28;20455;-75
2021/10/04 03:19:00;;;;;;;4.30;2.80;;;;;;;;;;4975563;28;20965;-76
2021/10/04 03:21:29;;;;;;;6.63;2.70;;;;;;;;;;4975214;28;20481;-76
2021/10/04 03:23:56;;;;;;;3.70;3.33;;;;;;;;;;4975213;28;20441;-76
2021/10/04 03:26:23;;;;;;;2.73;2.50;;;;;;;;;;4975194;28;20773;-76
2021/10/04 03:28:50;;;;;;;5.13;2.27;;;;;;;;;;4975267;28;20452;-76
2021/10/04 03:31:18;;;;;;;5.00;2.43;;;;;;;;;;4975869;28;20451;-76
2021/10/04 03:33:45;;;;;;;6.13;2.73;;;;;;;;;;4975329;28;20445;-76
2021/10/04 03:36:12;;;;;;;6.70;3.50;;;;;;;;;;4975446;28;20453;-76
2021/10/04 03:38:41;;;;;;;4.23;2.60;;;;;;;;;;4975114;28;20490;-76
2021/10/04 03:41:08;;;;;;;5.63;2.40;;;;;;;;;;4975183;28;20484;-76
2021/10/04 03:43:35;;;;;;;4.17;2.53;;;;;;;;;;4974934;28;20453;-76
2021/10/04 03:46:02;;;;;;;3.00;2.30;;;;;;;;;;4974884;28;20460;-76
2021/10/04 03:48:30;;;;;;;7.07;2.80;;;;;;;;;;4975322;28;20528;-76
2021/10/04 03:50:57;;;;;;;2.60;2.40;;;;;;;;;;4975144;28;20464;-76
2021/10/04 03:53:24;;;;;;;3.03;2.73;;;;;;;;;;4974816;28;20445;-76
2021/10/04 03:55:52;;;;;;;3.00;2.73;;;;;;;;;;4974482;28;20444;-76
2021/10/04 03:58:20;;;;;;;2.73;2.47;;;;;;;;;;4973967;28;20448;-76
2021/10/04 04:00:47;;;;;;;6.33;2.37;;;;;;;;;;4975065;28;20451;-76
2021/10/04 04:03:14;;;;;;;3.07;2.17;;;;;;;;;;4974954;28;20452;-76
2021/10/04 04:05:41;;;;;;;4.50;2.60;;;;;;;;;;4974341;28;20447;-76
2021/10/04 04:08:08;;;;;;;3.77;2.23;;;;;;;;;;4974636;28;20792;-76
2021/10/04 04:10:36;;;;;;;4.20;2.50;;;;;;;;;;4974666;28;20449;-76
2021/10/04 04:13:04;;;;;;;7.50;2.70;;;;;;;;;;4974618;28;20449;-76
2021/10/04 04:15:31;;;;;;;3.67;2.80;;;;;;;;;;4975383;28;20455;-76
2021/10/04 04:17:58;;;;;;;4.73;2.20;;;;;;;;;;4974211;28;20930;-76
2021/10/04 04:20:26;;;;;;;4.80;1.90;;;;;;;;;;4974060;28;20567;-73
2021/10/04 04:22:53;;;;;;;3.70;2.30;;;;;;;;;;4974493;28;20440;-74
2021/10/04 04:25:20;;;;;;;2.17;1.97;;;;;;;;;;4974192;28;20451;-75
2021/10/04 04:27:47;;;;;;;2.10;1.90;;;;;;;;;;4974177;28;20457;-79
2021/10/04 04:30:16;;;;;;;3.93;1.90;;;;;;;;;;4974555;28;20449;-83
2021/10/04 04:32:44;;;;;;;3.20;2.53;;;;;;;;;;4974519;28;20449;-82
2021/10/04 04:35:12;;;;;;;4.23;2.50;;;;;;;;;;4975246;28;20445;-81
2021/10/04 04:37:40;;;;;;;2.63;1.87;;;;;;;;;;4973334;28;20449;-84
2021/10/04 04:40:08;;;;;;;2.47;2.27;;;;;;;;;;4973390;28;21009;-84
2021/10/04 04:42:35;;;;;;;3.93;2.70;;;;;;;;;;4973433;28;20457;-84
2021/10/04 04:45:03;;;;;;;8.47;2.40;;;;;;;;;;4973698;28;20450;-84
2021/10/04 04:47:32;;;;;;;3.90;2.73;;;;;;;;;;4973433;28;20441;-81
2021/10/04 04:49:59;;;;;;;3.50;2.17;;;;;;;;;;4973522;28;20453;-83
2021/10/04 04:52:26;;;;;;;4.03;2.20;;;;;;;;;;4973152;28;20445;-82
2021/10/04 04:54:53;;;;;;;2.90;2.10;;;;;;;;;;4973601;28;20445;-82
2021/10/04 04:57:20;;;;;;;2.63;1.70;;;;;;;;;;4973475;28;20449;-84
2021/10/04 04:59:48;;;;;;;2.20;2.00;;;;;;;;;;4973421;28;20476;-81
2021/10/04 05:02:15;;;;;;;5.60;2.43;;;;;;;;;;4973194;28;20436;-82
2021/10/04 05:04:43;;;;;;;4.00;2.33;;;;;;;;;;4973615;28;20449;-82
2021/10/04 05:07:11;;;;;;;2.90;2.10;;;;;;;;;;4973481;28;20820;-83
2021/10/04 05:09:38;;;;;;;4.40;2.40;;;;;;;;;;4975746;28;20448;-83
2021/10/04 05:12:05;;;;;;;4.13;2.50;;;;;;;;;;4976664;28;20532;-82
2021/10/04 05:14:32;;;;;;;5.70;2.53;;;;;;;;;;4977202;28;20484;-82
2021/10/04 05:17:00;;;;;;;6.53;2.43;;;;;;;;;;4976727;28;20981;-83
2021/10/04 05:19:27;;;;;;;4.13;2.03;;;;;;;;;;4976834;28;20477;-84
2021/10/04 05:21:55;;;;;;;3.10;1.90;;;;;;;;;;4976327;28;20480;-82
2021/10/04 05:24:23;;;;;;;2.90;2.47;;;;;;;;;;4977265;28;20459;-85
2021/10/04 05:26:50;;;;;;;2.20;1.73;;;;;;;;;;4976708;28;20437;-83
2021/10/04 05:29:17;;;;;;;2.37;2.17;;;;;;;;;;4977075;28;20457;-82
2021/10/04 05:31:44;;;;;;;1.70;1.60;;;;;;;;;;4976839;28;20939;-83
2021/10/04 05:34:11;;;;;;;4.33;1.90;;;;;;;;;;4977305;28;20449;-80
2021/10/04 05:36:38;;;;;;;6.50;2.20;;;;;;;;;;4977031;28;20451;-82
2021/10/04 05:39:07;;;;;;;1.93;1.80;;;;;;;;;;4976837;28;20954;-82
2021/10/04 05:41:35;;;;;;;4.40;1.93;;;;;;;;;;4977485;28;20445;-76
2021/10/04 05:44:02;;;;;;;2.57;2.37;;;;;;;;;;4977592;28;20443;-78
2021/10/04 05:46:29;;;;;;;4.83;2.00;;;;;;;;;;4977580;28;20806;-86
2021/10/04 05:48:56;;;;;;;4.97;2.17;;;;;;;;;;4976659;28;20534;-85
2021/10/04 05:51:23;;;;;;;1.90;1.80;;;;;;;;;;4976569;28;20453;-85
2021/10/04 05:53:51;;;;;;;4.57;2.20;;;;;;;;;;4976657;28;20533;-85
2021/10/04 05:56:19;;;;;;;2.00;1.83;;;;;;;;;;4977413;28;20531;-85
2021/10/04 05:58:47;;;;;;;2.53;2.13;;;;;;;;;;4977247;28;20544;-84
2021/10/04 06:01:14;;;;;;;2.70;2.10;;;;;;;;;;4976558;28;20525;-84
2021/10/04 06:03:41;;;;;;;3.43;2.03;;;;;;;;;;4977040;28;20955;-84
2021/10/04 06:06:08;;;;;;;4.43;2.63;;;;;;;;;;4976859;28;20453;-85
2021/10/04 06:08:35;;;;;;;22.13;3.27;;;;;;;;;;4976733;28;20528;-85
2021/10/04 06:11:02;;;;;;;18.50;3.80;;;;;;;;;;4976496;28;20451;-84
2021/10/04 06:13:31;;;;;;;112.20;9.00;;;;;;;;;;4976394;28;20935;-84
2021/10/04 06:15:58;;;;;;;241.03;21.87;;;;;;;;;;4978224;28;20437;-84
2021/10/04 06:18:25;;;;;;;14.13;2.80;;;;;;;;;;4980893;28;20437;-85
2021/10/04 06:20:53;;;;;;;10.93;3.07;;;;;;;;;;4975811;28;20687;-84
2021/10/04 06:23:20;;;;;;;6.73;3.13;;;;;;;;;;4976922;28;20527;-84
2021/10/04 06:25:49;;;;;;;3.27;2.90;;;;;;;;;;4976600;28;20459;-84
2021/10/04 06:28:16;;;;;;;6.33;2.90;;;;;;;;;;4976255;28;20811;-85
2021/10/04 06:30:45;;;;;;;930.87;96.80;;;;;;;;;;4976555;28;20456;-84
2021/10/04 06:33:12;;;;;;;502.80;54.20;;;;;;;;;;4975809;28;20461;-83
2021/10/04 06:35:39;;;;;;;1188.67;142.63;;;;;;;;;;4976508;28;20548;-84
2021/10/04 06:38:06;;;;;;;833.77;83.80;;;;;;;;;;4975974;28;20445;-84
2021/10/04 06:40:34;;;;;;;339.77;32.57;;;;;;;;;;4977089;28;20481;-84
2021/10/04 06:43:02;;;;;;;472.00;43.40;;;;;;;;;;4976879;28;20445;-84
2021/10/04 06:45:29;;;;;;;137.53;13.57;;;;;;;;;;4978411;28;20449;-84
2021/10/04 06:47:58;;;;;;;40.53;3.70;;;;;;;;;;4976289;28;20508;-85
2021/10/04 06:50:25;;;;;;;19.43;4.70;;;;;;;;;;4976373;28;20544;-84
2021/10/04 06:52:52;;;;;;;11.03;2.80;;;;;;;;;;4976674;28;20456;-85
2021/10/04 06:55:19;;;;;;;7.60;2.60;;;;;;;;;;4975553;28;21009;-84
2021/10/04 06:57:46;;;;;;;694.07;71.00;;;;;;;;;;4976103;28;20447;-85
2021/10/04 07:00:20;;;;;;;397.87;40.63;;;;;;;;;;4976281;28;20487;-84
2021/10/04 07:02:47;;;;;;;505.70;50.83;;;;;;;;;;4976418;28;20488;-84
2021/10/04 07:05:16;;;;;;;172.53;17.13;;;;;;;;;;4977125;28;20452;-85
2021/10/04 07:07:43;;;;;;;30.33;5.40;;;;;;;;;;4976090;28;20446;-85
2021/10/04 07:10:10;;;;;;;8.00;2.87;;;;;;;;;;4976910;28;20536;-84
2021/10/04 07:12:38;;;;;;;1304.67;163.17;;;;;;;;;;4977215;28;20456;-84
2021/10/04 07:15:05;;;;;;;611.90;47.40;;;;;;;;;;4976484;28;20539;-85
2021/10/04 07:17:33;;;;;;;160.40;11.80;;;;;;;;;;4976501;28;20443;-84
2021/10/04 07:20:00;;;;;;;518.67;34.90;;;;;;;;;;4975626;28;20485;-84
2021/10/04 07:22:28;;;;;;;72.57;8.50;;;;;;;;;;4977057;28;20529;-84
2021/10/04 07:24:56;;;;;;;36.63;5.47;;;;;;;;;;4976511;28;20468;-84
2021/10/04 07:27:23;;;;;;;10.50;2.87;;;;;;;;;;4977325;28;20452;-84
2021/10/04 07:29:50;;;;;;;8.70;3.47;;;;;;;;;;4977298;28;20451;-85
2021/10/04 07:32:17;;;;;;;10.60;3.30;;;;;;;;;;4975097;28;20484;-85
2021/10/04 07:34:44;;;;;;;792.00;72.57;;;;;;;;;;4975452;28;20520;-85
2021/10/04 07:37:12;;;;;;;160.47;16.40;;;;;;;;;;4975905;28;20437;-85
2021/10/04 07:39:40;;;;;;;173.20;15.80;;;;;;;;;;4975750;28;20491;-85
2021/10/04 07:42:07;;;;;;;356.17;26.60;;;;;;;;;;4975876;28;20441;-85
2021/10/04 07:44:35;;;;;;;115.07;9.77;;;;;;;;;;4976021;28;20445;-84
2021/10/04 07:47:03;;;;;;;30.97;4.30;;;;;;;;;;4975164;28;20452;-84
2021/10/04 07:49:30;;;;;;;25.50;3.53;;;;;;;;;;4975932;28;20456;-85
2021/10/04 07:51:58;;;;;;;9.50;2.77;;;;;;;;;;4975917;28;21013;-85
2021/10/04 07:54:25;;;;;;;16.10;3.07;;;;;;;;;;4975605;28;20454;-85
2021/10/04 07:56:54;;;;;;;4.53;2.20;;;;;;;;;;4975101;28;20469;-84
2021/10/04 07:59:21;;;;;;;25.30;2.70;;;;;;;;;;4974770;28;20460;-85
2021/10/04 08:01:48;;;;;;;2.30;2.10;;;;;;;;;;4975225;28;20494;-86
2021/10/04 08:04:16;;;;;;;12.30;2.50;;;;;;;;;;4975485;28;20538;-85
2021/10/04 08:06:43;;;;;;;6.47;2.63;;;;;;;;;;4974912;28;20531;-85
2021/10/04 08:09:10;;;;;;;4.43;2.80;;;;;;;;;;4975376;28;20447;-86
2021/10/04 08:11:37;;;;;;;4.03;2.80;;;;;;;;;;4975370;28;20449;-85
2021/10/04 08:14:06;;;;;;;6.40;3.10;;;;;;;;;;4975006;28;20450;-86
2021/10/04 08:16:33;;;;;;;21.97;3.00;;;;;;;;;;4976957;28;20527;-85
2021/10/04 08:19:01;;;;;;;15.87;3.53;;;;;;;;;;4976662;28;20873;-85
2021/10/04 08:21:30;;;;;;;20.93;3.00;;;;;;;;;;4975384;28;20498;-85
2021/10/04 08:23:59;;;;;;;19.27;3.47;;;;;;;;;;4974865;28;20450;-85
2021/10/04 08:26:27;;;;;;;12.93;2.23;;;;;;;;;;4975041;28;20545;-85
2021/10/04 08:28:54;;;;;;;8.97;2.60;;;;;;;;;;4974542;28;20450;-85
2021/10/04 08:31:23;;;;;;;4.70;2.50;;;;;;;;;;4974448;28;20547;-85
2021/10/04 08:33:52;;;;;;;4.93;2.30;;;;;;;;;;4974296;28;20447;-84
2021/10/04 08:36:19;;;;;;;2.60;1.97;;;;;;;;;;4974707;28;20933;-85
2021/10/04 08:38:46;;;;;;;14.30;2.90;;;;;;;;;;4976128;28;20452;-85
2021/10/04 08:41:13;;;;;;;10.80;3.10;;;;;;;;;;4979098;28;20486;-85
2021/10/04 08:43:43;;;;;;;21.50;3.13;;;;;;;;;;4977960;28;20446;-84
2021/10/04 08:46:10;;;;;;;20.53;2.73;;;;;;;;;;4980111;28;20455;-84
2021/10/04 08:48:39;;;;;;;29.93;5.60;;;;;;;;;;4982669;28;20452;-85
2021/10/04 08:51:08;;;;;;;46.83;5.17;;;;;;;;;;4980965;28;20455;-86
2021/10/04 08:53:37;;;;;;;26.83;3.80;;;;;;;;;;4979108;28;20501;-85
2021/10/04 08:56:04;;;;;;;47.40;4.90;;;;;;;;;;4979867;28;20445;-85
2021/10/04 08:58:33;;;;;;;253.27;19.17;;;;;;;;;;4980014;28;20464;-85
2021/10/04 09:01:00;;;;;;;126.43;11.23;;;;;;;;;;4978188;28;20480;-85
2021/10/04 09:03:27;;;;;;;126.70;9.63;;;;;;;;;;4977747;28;20442;-85
2021/10/04 09:05:58;;;;;;;16.50;3.23;;;;;;;;;;4978035;28;20489;-85
2021/10/04 09:08:25;;;;;;;24.30;3.00;;;;;;;;;;4978045;28;20526;-86
2021/10/04 09:10:56;;;;;;;2.10;1.93;;;;;;;;;;4977830;28;20454;-85
2021/10/04 09:13:23;;;;;;;11.87;3.03;;;;;;;;;;4978296;28;20435;-85
2021/10/04 09:15:51;;;;;;;8.60;2.30;;;;;;;;;;4978266;28;20434;-85
2021/10/04 09:18:22;;;;;;;3.77;2.20;;;;;;;;;;4977644;28;20444;-84
2021/10/04 09:20:57;;;;;;;12.70;2.70;;;;;;;;;;4977570;28;20507;-85
2021/10/04 09:23:33;;;;;;;8.93;2.37;;;;;;;;;;4978111;28;20439;-85
2021/10/04 09:26:01;;;;;;;462.07;37.37;;;;;;;;;;4978696;28;20784;-84
2021/10/04 09:28:29;;;;;;;29.37;3.40;;;;;;;;;;4978345;28;20446;-86
2021/10/04 09:31:27;;;;;;;354.27;24.57;;;;;;;;;;4977490;28;20448;-86
2021/10/04 09:34:08;;;;;;;242.93;19.90;;;;;;;;;;4899772;29;20430;-86
2021/10/04 09:36:36;;;;;;;28.03;4.80;;;;;;;;;;4967239;28;20455;-85
2021/10/04 09:39:12;;;;;;;22.63;4.03;;;;;;;;;;4977409;28;20469;-86
2021/10/04 09:41:56;;;;;;;19.67;4.33;;;;;;;;;;4977494;28;20995;-86
2021/10/04 09:44:23;;;;;;;10.73;2.50;;;;;;;;;;4977326;28;20435;-85
2021/10/04 09:46:50;;;;;;;14.00;3.87;;;;;;;;;;4977890;28;20452;-85
2021/10/04 09:49:18;;;;;;;7.60;2.30;;;;;;;;;;4978111;28;20445;-85
2021/10/04 09:51:52;;;;;;;4.23;2.60;;;;;;;;;;4977847;28;20457;-84
2021/10/04 09:54:21;;;;;;;10.43;2.10;;;;;;;;;;4977353;28;20446;-85
2021/10/04 09:56:48;;;;;;;5.10;2.60;;;;;;;;;;4976446;28;20448;-86
2021/10/04 09:59:16;;;;;;;5.43;2.03;;;;;;;;;;4977240;28;20451;-85
2021/10/04 10:01:43;;;;;;;4.87;1.70;;;;;;;;;;4977430;28;20835;-86
2021/10/04 10:04:10;;;;;;;4.73;1.90;;;;;;;;;;4977534;28;20452;-86
2021/10/04 10:06:38;;;;;;;6.23;2.00;;;;;;;;;;4977562;28;20452;-86
2021/10/04 10:09:05;;;;;;;3.20;1.87;;;;;;;;;;4977162;28;20453;-86
2021/10/04 10:11:33;;;;;;;6.30;1.90;;;;;;;;;;4977468;28;20458;-86
2021/10/04 10:14:01;;;;;;;14.03;5.67;;;;;;;;;;4977457;28;20456;-87
2021/10/04 10:16:31;;;;;;;1.80;1.70;;;;;;;;;;4977539;28;20441;-85
2021/10/04 10:19:04;;;;;;;3.37;2.30;;;;;;;;;;4977456;28;20445;-86
2021/10/04 10:21:32;;;;;;;4.53;2.17;;;;;;;;;;4978018;28;20517;-85
2021/10/04 10:24:00;;;;;;;2.40;2.00;;;;;;;;;;4977467;28;20447;-85
2021/10/04 10:26:28;;;;;;;3.20;2.07;;;;;;;;;;4976905;28;20450;-85
2021/10/04 10:29:10;;;;;;;5.27;2.00;;;;;;;;;;4976965;28;20449;-85
2021/10/04 10:31:52;;;;;;;3.63;1.53;;;;;;;;;;4976603;28;20495;-85
2021/10/04 10:34:45;;;;;;;3.90;1.60;;;;;;;;;;4976337;28;20531;-84
2021/10/04 10:37:13;;;;;;;236.07;18.53;;;;;;;;;;4977585;28;20439;-84
2021/10/04 10:39:44;;;;;;;19.97;3.00;;;;;;;;;;4977866;28;20442;-86
2021/10/04 10:42:12;;;;;;;483.50;32.43;;;;;;;;;;4976990;28;20475;-86
2021/10/04 10:44:54;;;;;;;425.17;30.73;;;;;;;;;;4977539;28;20453;-85
2021/10/04 10:47:46;;;;;;;315.57;24.77;;;;;;;;;;4976557;28;20448;-85
2021/10/04 10:50:15;;;;;;;35.30;4.00;;;;;;;;;;4976737;28;20480;-85
2021/10/04 10:52:43;;;;;;;19.73;3.70;;;;;;;;;;4976925;28;20461;-86
2021/10/04 10:55:28;;;;;;;49.40;5.43;;;;;;;;;;4976503;28;20542;-86
2021/10/04 10:58:02;;;;;;;4.40;1.90;;;;;;;;;;4964129;28;20827;-86
2021/10/04 11:00:30;;;;;;;5.90;1.97;;;;;;;;;;4976336;28;20532;-86
2021/10/04 11:03:00;;;;;;;13.13;2.10;;;;;;;;;;4976559;28;20901;-84
2021/10/04 11:05:45;;;;;;;4.63;1.73;;;;;;;;;;4976811;28;20454;-85
2021/10/04 11:08:15;;;;;;;233.30;18.00;;;;;;;;;;4975786;28;20456;-87
2021/10/04 11:10:57;;;;;;;43.60;3.97;;;;;;;;;;4976891;28;20814;-86
2021/10/04 11:13:24;;;;;;;32.60;5.13;;;;;;;;;;4976023;28;20527;-86
2021/10/04 11:15:53;;;;;;;56.20;4.80;;;;;;;;;;4976262;28;20443;-86
2021/10/04 11:18:21;;;;;;;6.73;1.87;;;;;;;;;;4976242;28;20450;-86
2021/10/04 11:20:48;;;;;;;6.57;2.40;;;;;;;;;;4976176;28;20487;-86
2021/10/04 11:23:18;;;;;;;8.63;1.90;;;;;;;;;;4975629;28;20449;-85
2021/10/04 11:25:46;;;;;;;83.80;7.50;;;;;;;;;;4975474;28;20450;-85
2021/10/04 11:28:13;;;;;;;7.43;2.30;;;;;;;;;;4975821;28;20804;-86
2021/10/04 11:30:53;;;;;;;7.30;2.00;;;;;;;;;;4975199;28;20493;-86
2021/10/04 11:33:20;;;;;;;6.23;2.60;;;;;;;;;;4975296;28;20444;-84
2021/10/04 11:35:57;;;;;;;4.70;1.63;;;;;;;;;;4975447;28;20451;-86
2021/10/04 11:38:26;;;;;;;6.47;2.37;;;;;;;;;;4975278;28;20440;-86
2021/10/04 11:40:54;;;;;;;11.67;2.10;;;;;;;;;;4975120;28;20445;-86
2021/10/04 11:43:21;;;;;;;6.03;1.97;;;;;;;;;;4975486;28;20446;-84
2021/10/04 11:45:49;;;;;;;4.70;1.77;;;;;;;;;;4974922;28;20445;-87
2021/10/04 11:48:28;;;;;;;3.90;1.83;;;;;;;;;;4975393;28;20445;-85
2021/10/04 11:50:56;;;;;;;2.90;1.90;;;;;;;;;;4976020;28;20822;-86
2021/10/04 11:53:23;;;;;;;4.37;1.40;;;;;;;;;;4975271;28;20536;-86
2021/10/04 11:55:59;;;;;;;12.37;2.40;;;;;;;;;;4975268;28;20455;-86
2021/10/04 11:58:27;;;;;;;4.40;1.57;;;;;;;;;;4975560;28;20902;-85
2021/10/04 12:00:54;;;;;;;23.77;3.67;;;;;;;;;;4975290;28;20455;-85
2021/10/04 12:03:25;;;;;;;70.07;5.97;;;;;;;;;;4975582;28;20503;-86
2021/10/04 12:05:53;;;;;;;57.93;6.23;;;;;;;;;;4975317;28;20448;-84
2021/10/04 12:08:21;;;;;;;111.83;9.00;;;;;;;;;;4975058;28;20451;-85
2021/10/04 12:10:54;;;;;;;32.00;3.70;;;;;;;;;;4975717;28;20446;-86
2021/10/04 12:13:23;;;;;;;5.00;1.60;;;;;;;;;;4975219;28;20444;-86
2021/10/04 12:15:52;;;;;;;86.73;5.47;;;;;;;;;;4975078;28;20468;-86
2021/10/04 12:18:20;;;;;;;229.53;16.47;;;;;;;;;;4975333;28;20447;-86
2021/10/04 12:20:47;;;;;;;16.13;4.30;;;;;;;;;;4979144;28;20586;-84
2021/10/04 12:23:18;;;;;;;278.97;17.13;;;;;;;;;;4978565;28;20968;-83
2021/10/04 12:25:46;;;;;;;35.07;3.43;;;;;;;;;;4978285;28;20450;-75
2021/10/04 12:28:18;;;;;;;13.40;1.73;;;;;;;;;;4978763;28;20536;-78
2021/10/04 12:30:47;;;;;;;1.93;1.33;;;;;;;;;;4978573;28;20443;-78
2021/10/04 12:33:14;;;;;;;5.20;1.73;;;;;;;;;;4978432;28;20549;-79
2021/10/04 12:35:42;;;;;;;5.07;2.50;;;;;;;;;;4978347;28;20468;-77
2021/10/04 12:38:10;;;;;;;5.80;1.77;;;;;;;;;;4978932;28;20445;-77
2021/10/04 12:40:44;;;;;;;5.27;1.80;;;;;;;;;;4978077;28;21036;-80
2021/10/04 12:43:12;;;;;;;3.57;1.30;;;;;;;;;;4978298;28;20473;-79
2021/10/04 12:45:40;;;;;;;10.73;2.00;;;;;;;;;;4977857;28;20449;-79
2021/10/04 12:48:15;;;;;;;6.27;1.80;;;;;;;;;;4977677;28;20455;-80
2021/10/04 12:50:43;;;;;;;15.33;2.17;;;;;;;;;;4977390;28;20452;-82
2021/10/04 12:53:14;;;;;;;6.53;2.20;;;;;;;;;;4976954;28;20934;-80
2021/10/04 12:55:46;;;;;;;10.77;2.40;;;;;;;;;;4977245;28;20450;-79
2021/10/04 12:58:13;;;;;;;5.50;1.50;;;;;;;;;;4977236;28;20534;-77
2021/10/04 13:00:40;;;;;;;3.77;1.50;;;;;;;;;;4976741;28;21003;-80
2021/10/04 13:03:09;;;;;;;11.07;1.90;;;;;;;;;;4977244;28;20573;-80
2021/10/04 13:05:36;;;;;;;26.83;2.67;;;;;;;;;;4976767;28;20455;-78
2021/10/04 13:08:04;;;;;;;7.90;1.50;;;;;;;;;;4976837;28;20543;-80
2021/10/04 13:10:31;;;;;;;6.40;1.80;;;;;;;;;;4976904;28;20452;-78
2021/10/04 13:13:00;;;;;;;6.87;2.43;;;;;;;;;;4976650;28;20459;-80
2021/10/04 13:15:27;;;;;;;132.10;10.30;;;;;;;;;;4976838;28;20488;-80
2021/10/04 13:17:55;;;;;;;10.30;2.63;;;;;;;;;;4976870;28;20455;-79
2021/10/04 13:20:23;;;;;;;79.70;6.63;;;;;;;;;;4976715;28;20513;-79
2021/10/04 13:22:50;;;;;;;19.10;3.33;;;;;;;;;;4977215;28;20490;-79
2021/10/04 13:25:18;;;;;;;10.73;2.17;;;;;;;;;;4976876;28;20447;-77
2021/10/04 13:27:46;;;;;;;13.33;2.37;;;;;;;;;;4976846;28;20448;-77
2021/10/04 13:30:13;;;;;;;2.53;1.90;;;;;;;;;;4976465;28;20460;-78
2021/10/04 13:32:41;;;;;;;12.70;2.23;;;;;;;;;;4976531;28;20460;-80
2021/10/04 13:35:08;;;;;;;6.03;1.87;;;;;;;;;;4976802;28;20447;-79
2021/10/04 13:37:37;;;;;;;2.30;1.73;;;;;;;;;;4976837;28;20449;-78
2021/10/04 13:40:05;;;;;;;5.50;1.60;;;;;;;;;;4976096;28;20509;-77
2021/10/04 13:42:37;;;;;;;6.93;2.00;;;;;;;;;;4976290;28;20482;-76
2021/10/04 13:45:04;;;;;;;4.17;2.10;;;;;;;;;;4976570;28;20435;-78
2021/10/04 13:47:32;;;;;;;4.20;2.20;;;;;;;;;;4976354;28;20867;-80
2021/10/04 13:49:59;;;;;;;3.10;1.40;;;;;;;;;;4975990;28;20853;-81
2021/10/04 13:52:26;;;;;;;3.80;1.73;;;;;;;;;;4975754;28;20652;-79
2021/10/04 13:54:55;;;;;;;6.93;1.87;;;;;;;;;;4976661;28;20534;-80
2021/10/04 13:57:22;;;;;;;1.50;1.40;;;;;;;;;;4976288;28;20447;-79
2021/10/04 13:59:49;;;;;;;6.50;1.87;;;;;;;;;;4976643;28;20797;-78
2021/10/04 14:02:16;;;;;;;4.63;2.00;;;;;;;;;;4976563;28;20572;-80
2021/10/04 14:04:44;;;;;;;5.00;1.50;;;;;;;;;;4976623;28;20530;-77
2021/10/04 14:07:11;;;;;;;1.80;1.27;;;;;;;;;;4976274;28;20440;-79
2021/10/04 14:09:38;;;;;;;2.00;1.70;;;;;;;;;;4976027;28;20976;-81
2021/10/04 14:12:07;;;;;;;4.93;1.97;;;;;;;;;;4976271;28;20478;-79
2021/10/04 14:14:34;;;;;;;3.47;2.00;;;;;;;;;;4976259;28;20453;-81
2021/10/04 14:17:01;;;;;;;2.80;1.53;;;;;;;;;;4976224;28;20456;-81
2021/10/04 14:19:28;;;;;;;2.30;1.50;;;;;;;;;;4975921;28;20447;-80
2021/10/04 14:21:56;;;;;;;2.60;1.53;;;;;;;;;;4976334;28;20476;-76
2021/10/04 14:24:23;;;;;;;2.07;1.63;;;;;;;;;;4975621;28;20446;-78
2021/10/04 14:26:50;;;;;;;5.03;1.57;;;;;;;;;;4991056;28;20562;-75
2021/10/04 14:29:19;;;;;;;4.60;1.73;;;;;;;;;;4994741;28;20446;-78
2021/10/04 14:31:46;;;;;;;5.50;1.60;;;;;;;;;;4994734;28;20458;-80
2021/10/04 14:34:13;;;;;;;3.53;1.70;;;;;;;;;;4994268;28;20824;-76
2021/10/04 14:36:45;;;;;;;2.60;1.60;;;;;;;;;;4994722;28;20488;-80
2021/10/04 14:39:13;;;;;;;2.30;1.60;;;;;;;;;;4994996;28;20434;-81
2021/10/04 14:41:40;;;;;;;3.17;1.73;;;;;;;;;;4994488;28;20442;-82
2021/10/04 14:44:07;;;;;;;2.30;1.50;;;;;;;;;;4994670;28;21077;-80